Terminal Aerodrome Forecast
Issued by NWS

Home | Current Version | Previous Version | Text Only | Print | Product List | Glossary On
Versions: 1 2 3 4 5 6 7 8 9 10 11 12 13 14 15 16 17 18 19 20
095
FTUS41 KAKQ 211729
TAFPHF
TAF
KPHF 211729Z 2118/2218 07010KT P6SM BKN025
     FM212000 08009KT P6SM BKN035
     FM220500 10005KT 5SM BR VCSH OVC015
     FM220800 VRB04KT 3SM BR OVC008
     FM221400 22005KT P6SM OVC035=

USA.gov is the U.S. government's official web portal to all federal, state and local government web resources and services.